sensor_id;sensor_type;location;lat;lon;timestamp;pressure;altitude;pressure_sealevel;temperature;humidity
76460;BME280;65299;46.084;18.762;2023-03-11T00:01:58;98614.47;;;10.87;75.40
76460;BME280;65299;46.084;18.762;2023-03-11T00:04:59;98613.94;;;11.07;75.27
76460;BME280;65299;46.084;18.762;2023-03-11T00:07:59;98618.03;;;11.13;74.65
76460;BME280;65299;46.084;18.762;2023-03-11T00:11:00;98626.75;;;11.05;74.32
76460;BME280;65299;46.084;18.762;2023-03-11T00:14:01;98626.44;;;11.07;74.63
76460;BME280;65299;46.084;18.762;2023-03-11T00:17:01;98633.75;;;11.01;74.62
76460;BME280;65299;46.084;18.762;2023-03-11T00:20:03;98636.78;;;10.86;75.15
76460;BME280;65299;46.084;18.762;2023-03-11T00:23:05;98633.53;;;10.89;74.74
76460;BME280;65299;46.084;18.762;2023-03-11T00:26:06;98639.09;;;10.57;76.18
76460;BME280;65299;46.084;18.762;2023-03-11T00:29:07;98632.34;;;10.51;76.32
76460;BME280;65299;46.084;18.762;2023-03-11T00:32:07;98626.06;;;10.69;75.96
76460;BME280;65299;46.084;18.762;2023-03-11T00:35:12;98628.00;;;10.77;75.69
76460;BME280;65299;46.084;18.762;2023-03-11T00:38:14;98634.56;;;10.79;75.64
76460;BME280;65299;46.084;18.762;2023-03-11T00:41:15;98628.72;;;10.91;75.42
76460;BME280;65299;46.084;18.762;2023-03-11T00:44:16;98635.50;;;10.83;75.73
76460;BME280;65299;46.084;18.762;2023-03-11T00:47:16;98634.97;;;10.73;75.45
76460;BME280;65299;46.084;18.762;2023-03-11T00:50:21;98633.00;;;10.78;75.31
76460;BME280;65299;46.084;18.762;2023-03-11T00:53:22;98632.28;;;10.87;75.58
76460;BME280;65299;46.084;18.762;2023-03-11T00:56:22;98623.47;;;10.77;75.44
76460;BME280;65299;46.084;18.762;2023-03-11T00:59:23;98629.91;;;10.32;76.96
76460;BME280;65299;46.084;18.762;2023-03-11T01:02:24;98622.38;;;10.48;76.73
76460;BME280;65299;46.084;18.762;2023-03-11T01:05:27;98628.50;;;10.57;75.89
76460;BME280;65299;46.084;18.762;2023-03-11T01:08:28;98613.94;;;10.46;76.53
76460;BME280;65299;46.084;18.762;2023-03-11T01:11:30;98625.66;;;10.53;76.32
76460;BME280;65299;46.084;18.762;2023-03-11T01:14:31;98620.72;;;10.60;76.05
76460;BME280;65299;46.084;18.762;2023-03-11T01:17:32;98609.94;;;10.88;75.17
76460;BME280;65299;46.084;18.762;2023-03-11T01:20:34;98615.00;;;10.45;76.34
76460;BME280;65299;46.084;18.762;2023-03-11T01:23:34;98606.06;;;10.41;76.30
76460;BME280;65299;46.084;18.762;2023-03-11T01:26:35;98612.41;;;10.53;76.29
76460;BME280;65299;46.084;18.762;2023-03-11T01:29:35;98617.25;;;10.82;74.94
76460;BME280;65299;46.084;18.762;2023-03-11T01:32:36;98614.81;;;10.63;75.35
76460;BME280;65299;46.084;18.762;2023-03-11T01:35:36;98613.41;;;10.66;75.52
76460;BME280;65299;46.084;18.762;2023-03-11T01:38:39;98624.16;;;10.61;75.72
76460;BME280;65299;46.084;18.762;2023-03-11T01:41:39;98610.81;;;10.74;75.41
76460;BME280;65299;46.084;18.762;2023-03-11T01:44:40;98613.38;;;10.88;74.81
76460;BME280;65299;46.084;18.762;2023-03-11T01:47:40;98613.97;;;10.76;74.94
76460;BME280;65299;46.084;18.762;2023-03-11T01:50:45;98604.78;;;10.82;74.59
76460;BME280;65299;46.084;18.762;2023-03-11T01:53:46;98602.25;;;10.77;74.75
76460;BME280;65299;46.084;18.762;2023-03-11T01:56:47;98601.38;;;10.60;75.45
76460;BME280;65299;46.084;18.762;2023-03-11T01:59:51;98610.06;;;10.52;75.37
76460;BME280;65299;46.084;18.762;2023-03-11T02:02:54;98613.38;;;10.35;75.89
76460;BME280;65299;46.084;18.762;2023-03-11T02:05:59;98609.28;;;10.29;76.14
76460;BME280;65299;46.084;18.762;2023-03-11T02:09:00;98604.81;;;10.16;76.64
76460;BME280;65299;46.084;18.762;2023-03-11T02:12:03;98609.69;;;10.23;75.83
76460;BME280;65299;46.084;18.762;2023-03-11T02:15:06;98621.13;;;10.10;75.62
76460;BME280;65299;46.084;18.762;2023-03-11T02:18:08;98621.13;;;10.10;75.59
76460;BME280;65299;46.084;18.762;2023-03-11T02:24:55;98634.53;;;9.77;76.64
76460;BME280;65299;46.084;18.762;2023-03-11T02:28:00;98642.97;;;9.79;76.07
76460;BME280;65299;46.084;18.762;2023-03-11T02:31:01;98648.09;;;9.62;76.51
76460;BME280;65299;46.084;18.762;2023-03-11T02:34:03;98659.06;;;9.69;76.35
76460;BME280;65299;46.084;18.762;2023-03-11T02:37:12;98659.66;;;9.80;75.68
76460;BME280;65299;46.084;18.762;2023-03-11T02:43:40;98667.94;;;9.65;75.77
76460;BME280;65299;46.084;18.762;2023-03-11T02:46:41;98658.69;;;9.62;76.10
76460;BME280;65299;46.084;18.762;2023-03-11T02:49:42;98662.59;;;9.78;75.61
76460;BME280;65299;46.084;18.762;2023-03-11T02:52:43;98656.72;;;9.68;75.77
76460;BME280;65299;46.084;18.762;2023-03-11T02:55:44;98649.88;;;9.53;76.03
76460;BME280;65299;46.084;18.762;2023-03-11T02:58:44;98640.31;;;9.79;75.28
76460;BME280;65299;46.084;18.762;2023-03-11T03:01:45;98632.84;;;9.81;74.58
76460;BME280;65299;46.084;18.762;2023-03-11T03:04:45;98644.94;;;9.87;74.81
76460;BME280;65299;46.084;18.762;2023-03-11T03:07:47;98655.72;;;9.77;75.07
76460;BME280;65299;46.084;18.762;2023-03-11T03:10:47;98668.13;;;9.41;76.01
76460;BME280;65299;46.084;18.762;2023-03-11T03:13:48;98680.88;;;9.26;78.56
76460;BME280;65299;46.084;18.762;2023-03-11T03:16:48;98679.97;;;9.57;77.38
76460;BME280;65299;46.084;18.762;2023-03-11T03:19:49;98682.63;;;9.71;76.91
76460;BME280;65299;46.084;18.762;2023-03-11T03:22:49;98670.03;;;9.90;76.06
76460;BME280;65299;46.084;18.762;2023-03-11T03:25:50;98674.66;;;9.84;76.19
76460;BME280;65299;46.084;18.762;2023-03-11T03:28:50;98671.13;;;9.89;75.73
76460;BME280;65299;46.084;18.762;2023-03-11T03:31:51;98680.06;;;9.66;76.24
76460;BME280;65299;46.084;18.762;2023-03-11T03:34:51;98681.16;;;9.65;76.81
76460;BME280;65299;46.084;18.762;2023-03-11T03:37:58;98690.56;;;9.84;76.04
76460;BME280;65299;46.084;18.762;2023-03-11T03:40:58;98691.50;;;10.02;75.29
76460;BME280;65299;46.084;18.762;2023-03-11T03:43:59;98693.56;;;10.05;75.30
76460;BME280;65299;46.084;18.762;2023-03-11T03:46:59;98695.44;;;10.04;75.16
76460;BME280;65299;46.084;18.762;2023-03-11T03:50:02;98694.75;;;9.99;75.12
76460;BME280;65299;46.084;18.762;2023-03-11T03:53:02;98697.09;;;10.00;75.26
76460;BME280;65299;46.084;18.762;2023-03-11T03:56:04;98711.31;;;10.18;74.97
76460;BME280;65299;46.084;18.762;2023-03-11T03:59:05;98713.97;;;10.04;75.34
76460;BME280;65299;46.084;18.762;2023-03-11T04:02:06;98711.47;;;9.99;75.39
76460;BME280;65299;46.084;18.762;2023-03-11T04:05:07;98703.38;;;10.04;75.23
76460;BME280;65299;46.084;18.762;2023-03-11T04:08:08;98714.59;;;10.01;75.00
76460;BME280;65299;46.084;18.762;2023-03-11T04:11:08;98723.63;;;10.00;73.69
76460;BME280;65299;46.084;18.762;2023-03-11T04:14:09;98709.72;;;9.54;75.06
76460;BME280;65299;46.084;18.762;2023-03-11T04:17:12;98709.88;;;9.71;74.18
76460;BME280;65299;46.084;18.762;2023-03-11T04:20:13;98709.69;;;9.95;72.68
76460;BME280;65299;46.084;18.762;2023-03-11T04:23:14;98711.56;;;9.94;72.57
76460;BME280;65299;46.084;18.762;2023-03-11T04:26:14;98721.56;;;9.84;72.86
76460;BME280;65299;46.084;18.762;2023-03-11T04:29:15;98725.47;;;10.00;72.56
76460;BME280;65299;46.084;18.762;2023-03-11T04:32:15;98728.06;;;9.91;73.41
76460;BME280;65299;46.084;18.762;2023-03-11T04:35:16;98734.00;;;9.83;75.01
76460;BME280;65299;46.084;18.762;2023-03-11T04:38:16;98747.06;;;10.21;73.04
76460;BME280;65299;46.084;18.762;2023-03-11T04:41:17;98747.38;;;10.06;67.83
76460;BME280;65299;46.084;18.762;2023-03-11T04:44:17;98748.94;;;10.07;72.34
76460;BME280;65299;46.084;18.762;2023-03-11T04:47:18;98747.16;;;10.29;69.38
76460;BME280;65299;46.084;18.762;2023-03-11T04:50:19;98740.78;;;10.30;68.58
76460;BME280;65299;46.084;18.762;2023-03-11T04:53:20;98751.94;;;10.41;67.80
76460;BME280;65299;46.084;18.762;2023-03-11T04:56:20;98757.88;;;10.60;67.53
76460;BME280;65299;46.084;18.762;2023-03-11T04:59:21;98764.91;;;10.42;68.06
76460;BME280;65299;46.084;18.762;2023-03-11T05:02:21;98770.09;;;10.47;68.04
76460;BME280;65299;46.084;18.762;2023-03-11T05:05:22;98769.16;;;10.30;68.73
76460;BME280;65299;46.084;18.762;2023-03-11T05:08:23;98772.59;;;10.17;66.37
76460;BME280;65299;46.084;18.762;2023-03-11T05:11:24;98758.47;;;9.67;68.83
76460;BME280;65299;46.084;18.762;2023-03-11T05:14:24;98783.19;;;9.76;68.43
76460;BME280;65299;46.084;18.762;2023-03-11T05:17:24;98801.16;;;9.79;67.69
76460;BME280;65299;46.084;18.762;2023-03-11T05:20:25;98825.94;;;9.56;66.72
76460;BME280;65299;46.084;18.762;2023-03-11T05:23:25;98817.81;;;9.66;66.36
76460;BME280;65299;46.084;18.762;2023-03-11T05:26:26;98826.81;;;9.19;67.38
76460;BME280;65299;46.084;18.762;2023-03-11T05:29:27;98828.72;;;9.32;66.04
76460;BME280;65299;46.084;18.762;2023-03-11T05:32:27;98832.75;;;9.11;65.09
76460;BME280;65299;46.084;18.762;2023-03-11T05:35:28;98833.72;;;9.01;66.67
76460;BME280;65299;46.084;18.762;2023-03-11T05:38:28;98840.16;;;8.95;66.65
76460;BME280;65299;46.084;18.762;2023-03-11T05:41:28;98861.03;;;8.78;67.44
76460;BME280;65299;46.084;18.762;2023-03-11T05:44:29;98862.53;;;8.84;68.32
76460;BME280;65299;46.084;18.762;2023-03-11T05:47:30;98864.66;;;8.82;68.70
76460;BME280;65299;46.084;18.762;2023-03-11T05:50:30;98860.25;;;8.35;70.86
76460;BME280;65299;46.084;18.762;2023-03-11T05:53:31;98865.06;;;8.05;70.92
76460;BME280;65299;46.084;18.762;2023-03-11T05:56:31;98875.53;;;7.86;70.32
76460;BME280;65299;46.084;18.762;2023-03-11T05:59:32;98875.13;;;7.45;71.64
76460;BME280;65299;46.084;18.762;2023-03-11T06:02:34;98882.53;;;7.43;71.33
76460;BME280;65299;46.084;18.762;2023-03-11T06:05:34;98876.19;;;7.44;72.21
76460;BME280;65299;46.084;18.762;2023-03-11T06:08:35;98878.94;;;7.29;72.74
76460;BME280;65299;46.084;18.762;2023-03-11T06:11:36;98896.00;;;7.03;72.81
76460;BME280;65299;46.084;18.762;2023-03-11T06:14:36;98912.69;;;6.94;73.66
76460;BME280;65299;46.084;18.762;2023-03-11T06:17:37;98920.75;;;6.63;74.87
76460;BME280;65299;46.084;18.762;2023-03-11T06:20:38;98942.38;;;6.60;75.28
76460;BME280;65299;46.084;18.762;2023-03-11T06:23:38;98940.81;;;6.54;76.04
76460;BME280;65299;46.084;18.762;2023-03-11T06:26:39;98947.72;;;6.45;76.94
76460;BME280;65299;46.084;18.762;2023-03-11T06:29:40;98946.31;;;6.63;76.49
76460;BME280;65299;46.084;18.762;2023-03-11T06:32:43;98961.34;;;6.62;75.88
76460;BME280;65299;46.084;18.762;2023-03-11T06:35:43;98962.06;;;6.78;76.01
76460;BME280;65299;46.084;18.762;2023-03-11T06:38:45;98968.25;;;6.43;77.18
76460;BME280;65299;46.084;18.762;2023-03-11T06:41:49;98976.72;;;6.30;78.48
76460;BME280;65299;46.084;18.762;2023-03-11T06:44:49;98983.56;;;6.21;78.81
76460;BME280;65299;46.084;18.762;2023-03-11T06:47:50;98979.91;;;6.12;78.31
76460;BME280;65299;46.084;18.762;2023-03-11T06:50:58;98996.22;;;6.24;79.15
76460;BME280;65299;46.084;18.762;2023-03-11T06:53:59;99008.06;;;6.22;78.79
76460;BME280;65299;46.084;18.762;2023-03-11T06:56:59;99014.63;;;6.39;79.06
76460;BME280;65299;46.084;18.762;2023-03-11T07:00:00;99020.94;;;6.48;79.39
76460;BME280;65299;46.084;18.762;2023-03-11T07:03:00;99024.91;;;6.36;78.50
76460;BME280;65299;46.084;18.762;2023-03-11T07:06:01;99025.63;;;6.77;77.92
76460;BME280;65299;46.084;18.762;2023-03-11T07:09:01;99029.09;;;6.52;77.89
76460;BME280;65299;46.084;18.762;2023-03-11T07:12:02;99018.31;;;6.43;77.55
76460;BME280;65299;46.084;18.762;2023-03-11T07:15:03;99044.16;;;6.31;78.00
76460;BME280;65299;46.084;18.762;2023-03-11T07:18:03;99049.16;;;6.18;78.66
76460;BME280;65299;46.084;18.762;2023-03-11T07:21:05;99068.91;;;6.35;78.51
76460;BME280;65299;46.084;18.762;2023-03-11T07:24:07;99075.00;;;6.21;76.79
76460;BME280;65299;46.084;18.762;2023-03-11T07:27:07;99068.38;;;5.93;76.26
76460;BME280;65299;46.084;18.762;2023-03-11T07:30:08;99068.66;;;6.12;77.12
76460;BME280;65299;46.084;18.762;2023-03-11T07:33:09;99067.09;;;6.11;77.20
76460;BME280;65299;46.084;18.762;2023-03-11T07:36:11;99059.97;;;6.26;76.29
76460;BME280;65299;46.084;18.762;2023-03-11T07:39:15;99079.19;;;6.12;76.27
76460;BME280;65299;46.084;18.762;2023-03-11T07:42:16;99086.31;;;6.11;75.26
76460;BME280;65299;46.084;18.762;2023-03-11T07:45:17;99076.84;;;6.00;74.50
76460;BME280;65299;46.084;18.762;2023-03-11T07:48:17;99083.44;;;6.13;74.65
76460;BME280;65299;46.084;18.762;2023-03-11T07:51:26;99065.78;;;6.08;73.92
76460;BME280;65299;46.084;18.762;2023-03-11T07:54:27;99043.38;;;6.06;73.01
76460;BME280;65299;46.084;18.762;2023-03-11T07:57:28;99033.09;;;6.24;71.35
76460;BME280;65299;46.084;18.762;2023-03-11T08:00:28;99031.47;;;6.43;70.83
76460;BME280;65299;46.084;18.762;2023-03-11T08:03:28;99043.56;;;6.64;71.69
76460;BME280;65299;46.084;18.762;2023-03-11T08:06:31;99054.66;;;6.56;69.74
76460;BME280;65299;46.084;18.762;2023-03-11T08:09:33;99069.94;;;6.69;70.18
76460;BME280;65299;46.084;18.762;2023-03-11T08:12:34;99064.06;;;6.93;69.09
76460;BME280;65299;46.084;18.762;2023-03-11T08:15:35;99066.06;;;7.26;68.39
76460;BME280;65299;46.084;18.762;2023-03-11T08:18:36;99073.00;;;7.61;68.56
76460;BME280;65299;46.084;18.762;2023-03-11T08:21:37;99075.84;;;7.74;68.30
76460;BME280;65299;46.084;18.762;2023-03-11T08:24:37;99066.78;;;8.24;68.71
76460;BME280;65299;46.084;18.762;2023-03-11T08:27:38;99081.38;;;8.50;67.14
76460;BME280;65299;46.084;18.762;2023-03-11T08:30:39;99078.94;;;8.82;67.00
76460;BME280;65299;46.084;18.762;2023-03-11T08:33:41;99069.03;;;8.93;67.63
76460;BME280;65299;46.084;18.762;2023-03-11T08:36:42;99073.88;;;8.86;67.78
76460;BME280;65299;46.084;18.762;2023-03-11T08:39:42;99080.72;;;8.63;66.46
76460;BME280;65299;46.084;18.762;2023-03-11T08:42:43;99092.03;;;8.69;66.02
76460;BME280;65299;46.084;18.762;2023-03-11T08:45:43;99085.03;;;8.83;65.65
76460;BME280;65299;46.084;18.762;2023-03-11T08:48:44;99082.78;;;8.95;64.79
76460;BME280;65299;46.084;18.762;2023-03-11T08:51:44;99088.28;;;8.98;62.97
76460;BME280;65299;46.084;18.762;2023-03-11T08:54:45;99091.09;;;9.07;64.44
76460;BME280;65299;46.084;18.762;2023-03-11T08:57:45;99098.19;;;8.88;61.95
76460;BME280;65299;46.084;18.762;2023-03-11T09:00:46;99105.19;;;9.02;62.95
76460;BME280;65299;46.084;18.762;2023-03-11T09:03:46;99108.72;;;8.69;61.65
76460;BME280;65299;46.084;18.762;2023-03-11T09:06:47;99114.13;;;8.83;61.92
76460;BME280;65299;46.084;18.762;2023-03-11T09:09:50;99122.59;;;8.80;62.00
76460;BME280;65299;46.084;18.762;2023-03-11T09:12:50;99127.47;;;8.96;63.63
76460;BME280;65299;46.084;18.762;2023-03-11T09:15:52;99129.25;;;8.49;60.56
76460;BME280;65299;46.084;18.762;2023-03-11T09:18:52;99116.34;;;8.42;59.43
76460;BME280;65299;46.084;18.762;2023-03-11T09:21:53;99108.22;;;8.33;54.54
76460;BME280;65299;46.084;18.762;2023-03-11T09:24:53;99136.03;;;8.21;54.94
76460;BME280;65299;46.084;18.762;2023-03-11T09:27:54;99148.06;;;7.98;49.33
76460;BME280;65299;46.084;18.762;2023-03-11T09:30:55;99157.47;;;8.14;50.05
76460;BME280;65299;46.084;18.762;2023-03-11T09:33:55;99156.03;;;7.93;48.68
76460;BME280;65299;46.084;18.762;2023-03-11T09:36:56;99169.81;;;7.85;47.16
76460;BME280;65299;46.084;18.762;2023-03-11T09:39:56;99163.91;;;7.98;47.68
76460;BME280;65299;46.084;18.762;2023-03-11T09:43:10;99150.63;;;8.13;47.29
76460;BME280;65299;46.084;18.762;2023-03-11T09:53:41;99141.16;;;8.02;46.09
76460;BME280;65299;46.084;18.762;2023-03-11T09:56:19;99139.34;;;7.98;43.67
76460;BME280;65299;46.084;18.762;2023-03-11T09:59:29;99159.53;;;8.27;43.55
76460;BME280;65299;46.084;18.762;2023-03-11T10:02:31;99167.09;;;8.39;43.48
76460;BME280;65299;46.084;18.762;2023-03-11T10:05:31;99164.16;;;8.46;43.00
76460;BME280;65299;46.084;18.762;2023-03-11T10:08:56;99166.34;;;8.33;42.79
76460;BME280;65299;46.084;18.762;2023-03-11T10:21:30;99179.06;;;9.23;42.99
76460;BME280;65299;46.084;18.762;2023-03-11T10:25:02;99179.34;;;9.21;40.72
76460;BME280;65299;46.084;18.762;2023-03-11T10:28:10;99180.25;;;9.35;41.16
76460;BME280;65299;46.084;18.762;2023-03-11T10:34:54;99172.53;;;9.62;38.92
76460;BME280;65299;46.084;18.762;2023-03-11T10:38:01;99175.19;;;9.62;39.96
76460;BME280;65299;46.084;18.762;2023-03-11T10:44:33;99165.72;;;9.98;38.89
76460;BME280;65299;46.084;18.762;2023-03-11T10:47:34;99168.59;;;10.58;37.73
76460;BME280;65299;46.084;18.762;2023-03-11T10:50:34;99172.06;;;10.40;35.43
76460;BME280;65299;46.084;18.762;2023-03-11T10:53:46;99170.84;;;10.83;34.95
76460;BME280;65299;46.084;18.762;2023-03-11T10:56:53;99173.88;;;10.90;36.57
76460;BME280;65299;46.084;18.762;2023-03-11T10:59:59;99174.38;;;10.60;36.28
76460;BME280;65299;46.084;18.762;2023-03-11T11:03:00;99179.06;;;10.49;36.58
76460;BME280;65299;46.084;18.762;2023-03-11T11:09:22;99192.13;;;9.85;36.56
76460;BME280;65299;46.084;18.762;2023-03-11T11:12:23;99190.53;;;10.08;35.56
76460;BME280;65299;46.084;18.762;2023-03-11T11:15:33;99192.56;;;10.34;36.14
76460;BME280;65299;46.084;18.762;2023-03-11T11:18:46;99197.72;;;10.26;35.23
76460;BME280;65299;46.084;18.762;2023-03-11T11:21:48;99197.88;;;10.16;34.16
76460;BME280;65299;46.084;18.762;2023-03-11T11:24:53;99204.16;;;10.20;34.72
76460;BME280;65299;46.084;18.762;2023-03-11T11:28:00;99197.13;;;10.10;34.81
76460;BME280;65299;46.084;18.762;2023-03-11T11:31:05;99203.44;;;10.14;34.02
76460;BME280;65299;46.084;18.762;2023-03-11T11:34:31;99205.88;;;10.11;34.34
76460;BME280;65299;46.084;18.762;2023-03-11T11:37:36;99198.06;;;10.19;34.14
76460;BME280;65299;46.084;18.762;2023-03-11T11:40:37;99197.41;;;10.46;33.44
76460;BME280;65299;46.084;18.762;2023-03-11T11:43:53;99194.44;;;10.34;33.69
76460;BME280;65299;46.084;18.762;2023-03-11T11:47:00;99202.06;;;10.72;35.79
76460;BME280;65299;46.084;18.762;2023-03-11T11:50:05;99197.31;;;10.69;34.36
76460;BME280;65299;46.084;18.762;2023-03-11T11:53:29;99198.88;;;10.89;34.99
76460;BME280;65299;46.084;18.762;2023-03-11T11:56:33;99204.78;;;10.67;35.39
76460;BME280;65299;46.084;18.762;2023-03-11T11:59:34;99194.59;;;10.74;34.20
76460;BME280;65299;46.084;18.762;2023-03-11T12:05:57;99209.09;;;11.41;33.16
76460;BME280;65299;46.084;18.762;2023-03-11T12:12:27;99222.25;;;10.87;35.36
76460;BME280;65299;46.084;18.762;2023-03-11T12:15:32;99223.16;;;10.45;35.15
76460;BME280;65299;46.084;18.762;2023-03-11T12:18:42;99215.56;;;10.90;37.28
76460;BME280;65299;46.084;18.762;2023-03-11T12:28:43;99225.94;;;10.17;36.87
76460;BME280;65299;46.084;18.762;2023-03-11T12:31:45;99229.94;;;10.14;35.71
76460;BME280;65299;46.084;18.762;2023-03-11T12:34:46;99234.88;;;9.78;35.94
76460;BME280;65299;46.084;18.762;2023-03-11T12:38:04;99231.34;;;10.30;35.85
76460;BME280;65299;46.084;18.762;2023-03-11T12:44:45;99225.44;;;10.33;33.62
76460;BME280;65299;46.084;18.762;2023-03-11T12:48:23;99214.91;;;10.47;32.67
76460;BME280;65299;46.084;18.762;2023-03-11T12:54:38;99252.13;;;10.60;34.31
76460;BME280;65299;46.084;18.762;2023-03-11T13:00:53;99239.22;;;10.35;32.04
76460;BME280;65299;46.084;18.762;2023-03-11T13:04:05;99237.91;;;10.33;32.65
76460;BME280;65299;46.084;18.762;2023-03-11T13:13:36;99262.88;;;10.50;33.78
76460;BME280;65299;46.084;18.762;2023-03-11T13:16:38;99266.88;;;10.85;33.75
76460;BME280;65299;46.084;18.762;2023-03-11T13:19:47;99273.13;;;10.57;32.37
76460;BME280;65299;46.084;18.762;2023-03-11T13:35:42;99300.56;;;10.47;33.06
76460;BME280;65299;46.084;18.762;2023-03-11T13:42:19;99312.03;;;10.43;34.05
76460;BME280;65299;46.084;18.762;2023-03-11T13:45:30;99326.31;;;10.65;33.85
76460;BME280;65299;46.084;18.762;2023-03-11T13:48:46;99324.19;;;10.25;33.82
76460;BME280;65299;46.084;18.762;2023-03-11T13:51:49;99333.63;;;10.36;34.38
76460;BME280;65299;46.084;18.762;2023-03-11T13:55:12;99329.91;;;10.56;34.90
76460;BME280;65299;46.084;18.762;2023-03-11T13:58:19;99350.75;;;10.44;34.25
76460;BME280;65299;46.084;18.762;2023-03-11T14:01:21;99354.22;;;10.81;35.49
76460;BME280;65299;46.084;18.762;2023-03-11T14:04:30;99363.84;;;10.35;34.12
76460;BME280;65299;46.084;18.762;2023-03-11T14:07:33;99357.34;;;9.99;34.18
76460;BME280;65299;46.084;18.762;2023-03-11T14:10:34;99357.38;;;10.23;34.56
76460;BME280;65299;46.084;18.762;2023-03-11T14:13:45;99357.88;;;10.25;34.73
76460;BME280;65299;46.084;18.762;2023-03-11T14:16:46;99356.09;;;9.91;34.50
76460;BME280;65299;46.084;18.762;2023-03-11T14:23:16;99370.69;;;10.18;35.95
76460;BME280;65299;46.084;18.762;2023-03-11T14:26:22;99376.00;;;10.18;36.46
76460;BME280;65299;46.084;18.762;2023-03-11T14:29:31;99371.56;;;9.79;35.94
76460;BME280;65299;46.084;18.762;2023-03-11T14:32:33;99379.06;;;10.01;36.09
76460;BME280;65299;46.084;18.762;2023-03-11T14:35:33;99381.09;;;10.09;35.44
76460;BME280;65299;46.084;18.762;2023-03-11T14:38:40;99379.69;;;9.93;35.25
76460;BME280;65299;46.084;18.762;2023-03-11T14:41:41;99385.44;;;9.71;36.14
76460;BME280;65299;46.084;18.762;2023-03-11T14:44:42;99383.19;;;9.83;35.14
76460;BME280;65299;46.084;18.762;2023-03-11T14:50:53;99406.56;;;9.48;34.97
76460;BME280;65299;46.084;18.762;2023-03-11T14:57:42;99402.97;;;9.29;36.17
76460;BME280;65299;46.084;18.762;2023-03-11T15:00:55;99419.44;;;9.26;35.24
76460;BME280;65299;46.084;18.762;2023-03-11T15:04:47;99410.22;;;9.18;36.25
76460;BME280;65299;46.084;18.762;2023-03-11T15:07:34;99429.00;;;9.16;35.78
76460;BME280;65299;46.084;18.762;2023-03-11T15:10:35;99435.84;;;9.28;37.02
76460;BME280;65299;46.084;18.762;2023-03-11T15:13:37;99444.88;;;9.16;35.35
76460;BME280;65299;46.084;18.762;2023-03-11T15:16:37;99454.25;;;9.04;35.92
76460;BME280;65299;46.084;18.762;2023-03-11T15:19:38;99456.78;;;9.24;37.36
76460;BME280;65299;46.084;18.762;2023-03-11T15:22:39;99454.06;;;9.34;37.88
76460;BME280;65299;46.084;18.762;2023-03-11T15:25:47;99466.13;;;9.06;36.41
76460;BME280;65299;46.084;18.762;2023-03-11T15:28:56;99476.00;;;8.91;36.82
76460;BME280;65299;46.084;18.762;2023-03-11T15:31:57;99462.84;;;8.71;36.39
76460;BME280;65299;46.084;18.762;2023-03-11T15:35:21;99469.72;;;8.77;37.11
76460;BME280;65299;46.084;18.762;2023-03-11T15:38:23;99478.44;;;8.77;38.16
76460;BME280;65299;46.084;18.762;2023-03-11T15:41:24;99472.41;;;8.62;37.41
76460;BME280;65299;46.084;18.762;2023-03-11T15:44:36;99458.22;;;8.27;36.46
76460;BME280;65299;46.084;18.762;2023-03-11T15:47:41;99486.72;;;8.46;36.54
76460;BME280;65299;46.084;18.762;2023-03-11T15:50:51;99497.84;;;8.27;37.17
76460;BME280;65299;46.084;18.762;2023-03-11T15:53:52;99490.06;;;8.81;35.31
76460;BME280;65299;46.084;18.762;2023-03-11T15:56:55;99514.50;;;8.18;37.14
76460;BME280;65299;46.084;18.762;2023-03-11T15:59:57;99516.34;;;8.07;37.38
76460;BME280;65299;46.084;18.762;2023-03-11T16:02:59;99518.47;;;7.85;38.40
76460;BME280;65299;46.084;18.762;2023-03-11T16:06:00;99515.03;;;7.75;38.88
76460;BME280;65299;46.084;18.762;2023-03-11T16:09:01;99518.44;;;7.65;38.83
76460;BME280;65299;46.084;18.762;2023-03-11T16:12:17;99519.75;;;7.63;39.63
76460;BME280;65299;46.084;18.762;2023-03-11T16:18:27;99533.44;;;7.49;38.62
76460;BME280;65299;46.084;18.762;2023-03-11T16:21:34;99518.91;;;7.42;38.96
76460;BME280;65299;46.084;18.762;2023-03-11T16:24:35;99534.22;;;7.35;39.85
76460;BME280;65299;46.084;18.762;2023-03-11T16:27:36;99545.53;;;7.25;40.31
76460;BME280;65299;46.084;18.762;2023-03-11T16:30:36;99537.84;;;7.14;41.18
76460;BME280;65299;46.084;18.762;2023-03-11T16:33:36;99550.50;;;7.12;40.84
76460;BME280;65299;46.084;18.762;2023-03-11T16:36:37;99560.03;;;7.18;41.28
76460;BME280;65299;46.084;18.762;2023-03-11T16:39:37;99566.59;;;7.10;41.19
76460;BME280;65299;46.084;18.762;2023-03-11T16:42:38;99569.50;;;7.19;41.62
76460;BME280;65299;46.084;18.762;2023-03-11T16:45:39;99565.75;;;7.00;41.84
76460;BME280;65299;46.084;18.762;2023-03-11T16:48:39;99576.03;;;7.01;42.25
76460;BME280;65299;46.084;18.762;2023-03-11T16:51:40;99582.34;;;6.95;43.00
76460;BME280;65299;46.084;18.762;2023-03-11T16:54:40;99589.31;;;6.69;43.67
76460;BME280;65299;46.084;18.762;2023-03-11T16:57:40;99585.00;;;6.58;43.71
76460;BME280;65299;46.084;18.762;2023-03-11T17:00:41;99594.66;;;6.43;44.60
76460;BME280;65299;46.084;18.762;2023-03-11T17:03:42;99590.22;;;6.48;44.60
76460;BME280;65299;46.084;18.762;2023-03-11T17:06:43;99605.34;;;6.26;44.96
76460;BME280;65299;46.084;18.762;2023-03-11T17:09:44;99624.94;;;6.40;44.72
76460;BME280;65299;46.084;18.762;2023-03-11T17:12:44;99630.41;;;6.29;44.65
76460;BME280;65299;46.084;18.762;2023-03-11T17:15:56;99645.59;;;6.22;45.11
76460;BME280;65299;46.084;18.762;2023-03-11T17:18:56;99639.44;;;6.11;45.23
76460;BME280;65299;46.084;18.762;2023-03-11T17:21:56;99645.03;;;6.15;45.28
76460;BME280;65299;46.084;18.762;2023-03-11T17:24:57;99634.88;;;6.02;44.68
76460;BME280;65299;46.084;18.762;2023-03-11T17:27:57;99644.22;;;6.14;43.33
76460;BME280;65299;46.084;18.762;2023-03-11T17:30:58;99660.69;;;6.31;43.04
76460;BME280;65299;46.084;18.762;2023-03-11T17:33:59;99670.91;;;6.23;43.26
76460;BME280;65299;46.084;18.762;2023-03-11T17:36:59;99673.72;;;6.43;42.65
76460;BME280;65299;46.084;18.762;2023-03-11T17:40:00;99680.13;;;6.25;43.27